createdAt,value
2022-11-08T00:01:59.515Z,11.88
2022-11-08T00:04:45.206Z,11.30
2022-11-08T00:07:49.206Z,11.32
2022-11-08T00:10:53.087Z,10.02
2022-11-08T00:13:57.042Z,11.30
2022-11-08T00:16:42.364Z,12.27
2022-11-08T00:19:27.826Z,12.20
2022-11-08T00:22:14.560Z,13.27
2022-11-08T00:25:00.268Z,9.82
2022-11-08T00:27:45.681Z,9.65
2022-11-08T00:30:31.089Z,11.52
2022-11-08T00:33:16.642Z,9.50
2022-11-08T00:36:03.481Z,11.82
2022-11-08T00:38:49.168Z,11.85
2022-11-08T00:41:34.605Z,9.73
2022-11-08T00:44:20.018Z,9.05
2022-11-08T00:47:05.676Z,15.57
2022-11-08T00:49:51.067Z,18.98
2022-11-08T00:52:36.530Z,15.85
2022-11-08T00:55:21.881Z,19.33
2022-11-08T00:58:07.426Z,21.05
2022-11-08T01:00:52.867Z,24.33
2022-11-08T01:03:38.441Z,19.42
2022-11-08T01:06:25.436Z,26.27
2022-11-08T01:09:10.898Z,20.02
2022-11-08T01:11:56.441Z,20.98
2022-11-08T01:14:41.858Z,16.60
2022-11-08T01:17:27.097Z,26.35
2022-11-08T01:20:12.695Z,18.30
2022-11-08T01:22:58.205Z,17.80
2022-11-08T01:25:46.908Z,25.48
2022-11-08T01:28:33.838Z,14.38
2022-11-08T01:31:22.216Z,15.38
2022-11-08T01:34:07.952Z,16.60
2022-11-08T01:36:53.141Z,18.33
2022-11-08T01:39:38.558Z,16.38
2022-11-08T01:42:31.295Z,18.73
2022-11-08T01:45:54.578Z,16.75
2022-11-08T01:48:44.726Z,16.17
2022-11-08T01:51:34.648Z,13.05
2022-11-08T01:54:29.870Z,21.38
2022-11-08T01:57:21.444Z,14.32
2022-11-08T02:00:12.480Z,22.17
2022-11-08T02:03:00.526Z,18.70
2022-11-08T02:05:47.302Z,19.52
2022-11-08T02:08:41.247Z,17.98
2022-11-08T02:11:27.886Z,17.15
2022-11-08T02:14:13.288Z,15.60
2022-11-08T02:16:58.662Z,12.23
2022-11-08T02:19:47.625Z,14.85
2022-11-08T02:22:44.053Z,12.40
2022-11-08T02:25:29.417Z,12.80
2022-11-08T02:28:14.904Z,13.93
2022-11-08T02:31:00.732Z,10.85
2022-11-08T02:33:47.304Z,15.93
2022-11-08T02:36:32.670Z,12.00
2022-11-08T02:39:18.200Z,16.90
2022-11-08T02:42:03.670Z,16.98
2022-11-08T02:44:49.317Z,16.48
2022-11-08T02:47:34.762Z,16.67
2022-11-08T02:50:20.069Z,15.93
2022-11-08T02:53:05.866Z,17.38
2022-11-08T02:55:51.468Z,15.85
2022-11-08T02:58:36.999Z,17.95
2022-11-08T03:01:22.735Z,15.05
2022-11-08T03:04:08.377Z,15.35
2022-11-08T03:06:53.778Z,13.50
2022-11-08T03:09:39.007Z,15.02
2022-11-08T03:12:24.577Z,14.52
2022-11-08T03:15:11.962Z,17.70
2022-11-08T03:17:58.179Z,15.20
2022-11-08T03:20:43.518Z,15.73
2022-11-08T03:23:28.959Z,15.20
2022-11-08T03:26:14.561Z,17.00
2022-11-08T03:29:00.094Z,14.48
2022-11-08T03:31:45.373Z,16.08
2022-11-08T03:34:30.745Z,14.95
2022-11-08T03:37:15.952Z,25.33
2022-11-08T03:40:01.453Z,30.80
2022-11-08T03:42:47.457Z,30.38
2022-11-08T03:45:32.944Z,32.97
2022-11-08T03:48:19.070Z,37.50
2022-11-08T03:51:04.998Z,39.67
2022-11-08T03:53:50.372Z,37.78
2022-11-08T03:56:35.820Z,34.00
2022-11-08T03:59:21.139Z,41.92
2022-11-08T04:02:06.607Z,42.25
2022-11-08T04:04:51.866Z,44.67
2022-11-08T04:07:38.006Z,49.60
2022-11-08T04:10:23.692Z,42.97
2022-11-08T04:13:28.552Z,49.88
2022-11-08T04:16:17.756Z,37.15
2022-11-08T04:19:21.903Z,34.45
2022-11-08T04:22:10.786Z,23.02
2022-11-08T04:24:56.365Z,21.42
2022-11-08T04:27:41.570Z,23.85
2022-11-08T04:30:26.923Z,25.67
2022-11-08T04:33:12.187Z,18.73
2022-11-08T04:36:04.885Z,18.52
2022-11-08T04:38:51.408Z,15.95
2022-11-08T04:41:37.050Z,17.45
2022-11-08T04:44:22.383Z,16.10
2022-11-08T04:47:07.970Z,17.77
2022-11-08T04:49:54.325Z,16.35
2022-11-08T04:52:40.609Z,17.42
2022-11-08T04:55:26.424Z,17.48
2022-11-08T04:58:11.754Z,19.15
2022-11-08T05:00:59.991Z,16.55
2022-11-08T05:03:47.165Z,17.63
2022-11-08T05:06:32.976Z,21.08
2022-11-08T05:09:18.966Z,17.83
2022-11-08T05:12:04.692Z,20.40
2022-11-08T05:14:50.391Z,19.15
2022-11-08T05:17:36.054Z,19.05
2022-11-08T05:20:40.574Z,19.58
2022-11-08T05:23:26.354Z,17.13
2022-11-08T05:26:12.874Z,20.08
2022-11-08T05:28:58.360Z,19.27
2022-11-08T05:31:43.842Z,17.85
2022-11-08T05:34:29.798Z,27.20
2022-11-08T05:37:15.471Z,24.98
2022-11-08T05:40:01.131Z,30.10
2022-11-08T05:42:46.888Z,21.00
2022-11-08T05:45:32.465Z,18.08
2022-11-08T05:48:18.497Z,25.92
2022-11-08T05:51:05.287Z,24.10
2022-11-08T05:53:52.166Z,32.17
2022-11-08T05:56:37.746Z,30.65
2022-11-08T05:59:26.520Z,35.70
2022-11-08T06:02:14.405Z,62.72
2022-11-08T06:05:00.289Z,53.50
2022-11-08T06:07:45.802Z,40.42
2022-11-08T06:10:31.393Z,35.97
2022-11-08T06:13:18.144Z,50.13
2022-11-08T06:16:06.571Z,47.08
2022-11-08T06:18:52.416Z,44.60
2022-11-08T06:21:38.632Z,33.95
2022-11-08T06:24:24.606Z,32.22
2022-11-08T06:27:10.030Z,41.95
2022-11-08T06:29:55.643Z,35.05
2022-11-08T06:32:41.209Z,33.20
2022-11-08T06:35:27.171Z,33.97
2022-11-08T06:38:13.139Z,43.25
2022-11-08T06:41:02.487Z,29.58
2022-11-08T06:43:49.246Z,19.92
2022-11-08T06:46:34.949Z,17.08
2022-11-08T06:49:20.859Z,18.33
2022-11-08T06:52:06.481Z,16.17
2022-11-08T06:54:52.836Z,20.77
2022-11-08T06:57:38.594Z,14.93
2022-11-08T07:00:24.773Z,17.90
2022-11-08T07:03:10.976Z,12.50
2022-11-08T07:05:57.191Z,15.05
2022-11-08T07:08:44.311Z,18.58
2022-11-08T07:11:30.435Z,15.68
2022-11-08T07:14:16.342Z,20.92
2022-11-08T07:17:02.444Z,14.02
2022-11-08T07:19:48.154Z,13.05
2022-11-08T07:22:33.908Z,14.80
2022-11-08T07:25:19.242Z,14.10
2022-11-08T07:28:08.375Z,13.63
2022-11-08T07:30:58.387Z,14.90
2022-11-08T07:33:43.926Z,15.93
2022-11-08T07:36:29.820Z,14.43
2022-11-08T07:39:16.050Z,20.17
2022-11-08T07:42:02.063Z,16.98
2022-11-08T07:44:48.566Z,19.52
2022-11-08T07:47:34.760Z,16.90
2022-11-08T07:50:22.241Z,27.10
2022-11-08T07:53:09.393Z,14.93
2022-11-08T07:55:55.412Z,15.63
2022-11-08T07:58:41.115Z,15.95
2022-11-08T08:01:26.610Z,15.50
2022-11-08T08:04:12.590Z,16.25
2022-11-08T08:06:59.013Z,14.82
2022-11-08T08:09:44.923Z,16.42
2022-11-08T08:12:30.051Z,20.92
2022-11-08T08:15:15.728Z,14.65
2022-11-08T08:18:03.478Z,13.25
2022-11-08T08:20:49.088Z,18.00
2022-11-08T08:23:34.720Z,16.83
2022-11-08T08:26:20.558Z,15.63
2022-11-08T08:29:06.340Z,14.32
2022-11-08T08:31:52.289Z,13.43
2022-11-08T08:34:37.669Z,14.00
2022-11-08T08:37:23.011Z,14.57
2022-11-08T08:40:10.548Z,11.35
2022-11-08T08:42:59.031Z,13.57
2022-11-08T08:45:44.948Z,15.80
2022-11-08T08:48:31.371Z,17.90
2022-11-08T08:51:17.429Z,17.88
2022-11-08T08:54:03.414Z,17.30
2022-11-08T08:56:49.045Z,15.43
2022-11-08T09:02:44.103Z,21.55
2022-11-08T09:05:31.207Z,14.05
2022-11-08T09:08:17.146Z,15.68
2022-11-08T09:11:03.450Z,15.60
2022-11-08T09:13:49.273Z,15.18
2022-11-08T09:16:35.751Z,16.40
2022-11-08T09:19:21.442Z,18.08
2022-11-08T09:22:07.195Z,21.13
2022-11-08T09:24:53.103Z,17.20
2022-11-08T09:27:39.210Z,15.18
2022-11-08T09:30:25.049Z,16.63
2022-11-08T09:33:10.892Z,15.27
2022-11-08T09:35:56.472Z,14.93
2022-11-08T09:38:42.657Z,13.52
2022-11-08T09:41:54.531Z,12.85
2022-11-08T09:45:15.667Z,8.57
2022-11-08T09:48:05.880Z,8.65
2022-11-08T09:50:54.294Z,9.05
2022-11-08T09:53:51.911Z,6.32
2022-11-08T09:56:38.480Z,6.30
2022-11-08T09:59:38.117Z,8.07
2022-11-08T10:02:25.212Z,8.18
2022-11-08T10:05:17.224Z,5.30
2022-11-08T10:08:29.694Z,6.18
2022-11-08T10:12:01.031Z,5.57
2022-11-08T10:14:58.903Z,5.55
2022-11-08T10:18:07.490Z,6.38
2022-11-08T10:20:59.759Z,8.73
2022-11-08T10:23:55.738Z,8.48
2022-11-08T10:26:46.109Z,9.95
2022-11-08T10:29:41.295Z,9.80
2022-11-08T10:32:30.673Z,5.95
2022-11-08T10:35:42.045Z,6.28
2022-11-08T10:38:34.303Z,5.97
2022-11-08T10:41:35.006Z,8.00
2022-11-08T10:44:24.588Z,8.90
2022-11-08T10:47:21.781Z,8.50
2022-11-08T10:50:17.407Z,6.07
2022-11-08T10:53:04.062Z,6.65
2022-11-08T10:55:52.416Z,6.47
2022-11-08T10:58:40.687Z,8.68
2022-11-08T11:01:26.452Z,6.38
2022-11-08T11:04:30.997Z,7.97
2022-11-08T11:07:35.051Z,6.03
2022-11-08T11:10:40.895Z,6.20
2022-11-08T11:16:18.822Z,7.80
2022-11-08T11:19:07.208Z,8.45
2022-11-08T11:22:06.028Z,11.32
2022-11-08T11:24:53.112Z,7.63
2022-11-08T11:27:38.861Z,7.82
2022-11-08T11:30:26.336Z,6.80
2022-11-08T11:33:27.391Z,6.88
2022-11-08T11:36:18.930Z,8.02
2022-11-08T11:39:27.556Z,6.68
2022-11-08T11:42:49.869Z,6.38
2022-11-08T11:45:44.056Z,4.55
2022-11-08T11:48:33.960Z,12.02
2022-11-08T11:51:19.549Z,6.45
2022-11-08T11:54:07.350Z,6.40
2022-11-08T11:57:04.235Z,4.50
2022-11-08T12:00:10.891Z,4.80
2022-11-08T12:03:23.408Z,5.93
2022-11-08T12:06:18.488Z,5.55
2022-11-08T12:09:28.062Z,7.93
2022-11-08T12:12:28.062Z,9.27
2022-11-08T12:15:41.797Z,4.95
2022-11-08T12:19:04.533Z,4.25
2022-11-08T12:22:12.199Z,10.52
2022-11-08T12:25:01.425Z,74.38
2022-11-08T12:27:52.744Z,44.75
2022-11-08T12:30:50.735Z,36.03
2022-11-08T12:33:55.304Z,5.10
2022-11-08T12:37:03.883Z,3.90
2022-11-08T12:40:21.896Z,3.97
2022-11-08T12:43:25.959Z,7.22
2022-11-08T12:46:20.726Z,11.50
2022-11-08T12:49:30.620Z,9.98
2022-11-08T12:52:21.916Z,5.22
2022-11-08T12:55:20.937Z,7.38
2022-11-08T12:58:20.036Z,4.28
2022-11-08T13:01:11.697Z,2.28
2022-11-08T13:04:20.377Z,4.50
2022-11-08T13:07:32.511Z,3.85
2022-11-08T13:10:23.768Z,7.87
2022-11-08T13:13:27.253Z,3.47
2022-11-08T13:16:19.660Z,5.38
2022-11-08T13:21:51.875Z,2.80
2022-11-08T13:24:44.745Z,4.07
2022-11-08T13:27:33.955Z,3.03
2022-11-08T13:30:34.129Z,3.05
2022-11-08T13:33:29.409Z,6.35
2022-11-08T13:36:40.937Z,6.75
2022-11-08T13:39:56.672Z,3.58
2022-11-08T13:43:43.667Z,6.30
2022-11-08T13:46:31.532Z,2.55
2022-11-08T13:49:22.650Z,2.80
2022-11-08T13:52:46.764Z,2.60
2022-11-08T13:55:41.535Z,3.17
2022-11-08T13:58:44.808Z,4.85
2022-11-08T14:01:38.424Z,9.57
2022-11-08T14:04:29.046Z,9.10
2022-11-08T14:07:36.067Z,2.53
2022-11-08T14:10:24.301Z,3.47
2022-11-08T14:13:37.932Z,3.38
2022-11-08T14:16:29.424Z,5.65
2022-11-08T14:19:27.318Z,4.63
2022-11-08T14:22:24.173Z,8.27
2022-11-08T14:25:25.083Z,3.63
2022-11-08T14:28:44.872Z,5.75
2022-11-08T14:31:33.329Z,4.00
2022-11-08T14:34:29.509Z,5.13
2022-11-08T14:37:23.463Z,3.03
2022-11-08T14:40:35.428Z,3.15
2022-11-08T14:43:22.051Z,4.93
2022-11-08T14:46:20.015Z,6.68
2022-11-08T14:49:18.404Z,4.93
2022-11-08T14:52:22.776Z,5.72
2022-11-08T14:55:11.403Z,6.47
2022-11-08T14:57:57.178Z,5.05
2022-11-08T15:00:44.193Z,15.20
2022-11-08T15:03:32.170Z,11.20
2022-11-08T15:06:18.475Z,16.20
2022-11-08T15:09:05.197Z,16.38
2022-11-08T15:11:54.622Z,9.90
2022-11-08T15:14:57.707Z,9.50
2022-11-08T15:17:43.008Z,11.35
2022-11-08T15:20:28.549Z,19.80
2022-11-08T15:23:33.978Z,24.05
2022-11-08T15:26:28.029Z,18.23
2022-11-08T15:29:13.632Z,22.00
2022-11-08T15:32:01.953Z,14.15
2022-11-08T15:34:48.539Z,12.35
2022-11-08T15:37:39.563Z,25.27
2022-11-08T15:40:28.387Z,18.30
2022-11-08T15:43:33.150Z,24.08
2022-11-08T15:46:28.546Z,19.85
2022-11-08T15:49:25.793Z,21.73
2022-11-08T15:52:11.443Z,23.42
2022-11-08T15:54:57.118Z,27.67
2022-11-08T15:57:44.456Z,20.58
2022-11-08T16:00:33.294Z,18.88
2022-11-08T16:03:19.323Z,20.58
2022-11-08T16:06:05.073Z,18.50
2022-11-08T16:08:50.702Z,17.17
2022-11-08T16:11:38.594Z,16.90
2022-11-08T16:14:25.191Z,19.50
2022-11-08T16:17:14.304Z,18.65
2022-11-08T16:19:59.958Z,23.20
2022-11-08T16:22:45.998Z,19.90
2022-11-08T16:25:36.464Z,19.90
2022-11-08T16:28:35.289Z,18.42
2022-11-08T16:31:21.093Z,20.20
2022-11-08T16:34:10.746Z,18.38
2022-11-08T16:36:56.670Z,23.00
2022-11-08T16:39:42.383Z,16.98
2022-11-08T16:42:28.102Z,20.10
2022-11-08T16:45:15.513Z,25.65
2022-11-08T16:48:02.765Z,22.17
2022-11-08T16:50:49.218Z,21.25
2022-11-08T16:53:36.782Z,18.73
2022-11-08T16:56:25.710Z,22.40
2022-11-08T16:59:11.923Z,26.48
2022-11-08T17:01:58.392Z,44.75
2022-11-08T17:04:44.024Z,36.88
2022-11-08T17:07:29.706Z,27.30
2022-11-08T17:10:19.143Z,39.80
2022-11-08T17:13:05.089Z,39.90
2022-11-08T17:15:55.317Z,25.38
2022-11-08T17:18:41.984Z,26.60
2022-11-08T17:21:44.377Z,25.80
2022-11-08T17:24:31.602Z,21.42
2022-11-08T17:27:19.937Z,23.92
2022-11-08T17:30:10.432Z,19.52
2022-11-08T17:32:56.479Z,17.35
2022-11-08T17:35:44.234Z,20.23
2022-11-08T17:38:30.372Z,17.05
2022-11-08T17:41:16.117Z,18.23
2022-11-08T17:44:01.710Z,13.93
2022-11-08T17:46:48.407Z,17.92
2022-11-08T17:49:34.407Z,20.80
2022-11-08T17:52:20.932Z,17.77
2022-11-08T17:55:07.800Z,17.92
2022-11-08T17:57:54.208Z,15.45
2022-11-08T18:00:39.735Z,17.85
2022-11-08T18:03:26.419Z,18.55
2022-11-08T18:06:14.173Z,22.83
2022-11-08T18:08:59.585Z,14.57
2022-11-08T18:11:48.077Z,19.85
2022-11-08T18:14:33.512Z,26.70
2022-11-08T18:17:22.274Z,17.85
2022-11-08T18:20:08.381Z,21.90
2022-11-08T18:22:54.556Z,17.30
2022-11-08T18:25:40.230Z,24.77
2022-11-08T18:28:27.042Z,34.08
2022-11-08T18:31:16.341Z,81.80
2022-11-08T18:34:03.081Z,43.60
2022-11-08T18:36:50.123Z,43.88
2022-11-08T18:39:36.107Z,47.60
2022-11-08T18:42:21.546Z,38.10
2022-11-08T18:45:07.923Z,38.42
2022-11-08T18:47:53.030Z,34.70
2022-11-08T18:50:38.700Z,33.50
2022-11-08T18:53:24.886Z,35.70
2022-11-08T18:56:15.677Z,33.67
2022-11-08T18:59:02.331Z,31.27
2022-11-08T19:01:49.910Z,32.28
2022-11-08T19:04:36.219Z,34.13
2022-11-08T19:07:22.145Z,39.90
2022-11-08T19:10:09.045Z,36.05
2022-11-08T19:12:54.904Z,42.30
2022-11-08T19:15:40.731Z,37.60
2022-11-08T19:18:27.622Z,43.72
2022-11-08T19:21:17.502Z,56.05
2022-11-08T19:24:08.786Z,63.08
2022-11-08T19:26:55.203Z,46.30
2022-11-08T19:29:41.016Z,42.00
2022-11-08T19:32:27.167Z,40.00
2022-11-08T19:35:13.149Z,36.15
2022-11-08T19:38:00.131Z,36.33
2022-11-08T19:40:47.428Z,35.22
2022-11-08T19:43:41.197Z,30.10
2022-11-08T19:46:29.463Z,26.75
2022-11-08T19:49:15.181Z,33.75
2022-11-08T19:52:01.054Z,25.80
2022-11-08T19:54:46.450Z,32.30
2022-11-08T19:57:35.002Z,30.83
2022-11-08T20:00:21.366Z,41.10
2022-11-08T20:03:07.126Z,36.33
2022-11-08T20:05:54.109Z,34.30
2022-11-08T20:08:40.820Z,26.85
2022-11-08T20:11:30.225Z,25.30
2022-11-08T20:14:16.331Z,33.95
2022-11-08T20:17:02.257Z,47.55
2022-11-08T20:19:50.666Z,43.22
2022-11-08T20:22:37.728Z,43.55
2022-11-08T20:25:23.495Z,51.60
2022-11-08T20:28:09.149Z,52.45
2022-11-08T20:31:03.226Z,45.83
2022-11-08T20:33:50.695Z,43.58
2022-11-08T20:36:41.016Z,49.17
2022-11-08T20:39:26.765Z,41.22
2022-11-08T20:42:12.760Z,46.67
2022-11-08T20:44:59.085Z,42.10
2022-11-08T20:47:48.114Z,41.08
2022-11-08T20:50:34.552Z,50.45
2022-11-08T20:53:19.918Z,58.78
2022-11-08T20:56:12.498Z,59.95
2022-11-08T20:58:58.444Z,42.65
2022-11-08T21:01:44.094Z,28.77
2022-11-08T21:04:30.595Z,29.00
2022-11-08T21:13:32.363Z,39.20
2022-11-08T21:16:29.176Z,23.98
2022-11-08T21:19:15.658Z,39.28
2022-11-08T21:22:16.111Z,24.10
2022-11-08T21:25:01.850Z,19.88
2022-11-08T21:27:47.701Z,15.98
2022-11-08T21:30:33.098Z,16.88
2022-11-08T21:33:18.742Z,17.67
2022-11-08T21:36:06.373Z,21.42
2022-11-08T21:38:53.711Z,16.27
2022-11-08T21:41:39.447Z,20.98
2022-11-08T21:44:26.797Z,18.00
2022-11-08T21:47:13.878Z,18.42
2022-11-08T21:50:00.113Z,15.57
2022-11-08T21:52:45.833Z,19.25
2022-11-08T21:55:32.413Z,16.33
2022-11-08T21:58:18.273Z,16.52
2022-11-08T22:01:06.180Z,16.98
2022-11-08T22:03:52.431Z,15.13
2022-11-08T22:06:40.547Z,14.90
2022-11-08T22:09:28.443Z,16.13
2022-11-08T22:12:14.658Z,21.92
2022-11-08T22:15:00.702Z,14.88
2022-11-08T22:18:14.256Z,13.85
2022-11-08T22:21:10.397Z,16.40
2022-11-08T22:23:56.666Z,11.80
2022-11-08T22:26:42.233Z,14.00
2022-11-08T22:29:27.494Z,10.77
2022-11-08T22:32:13.040Z,10.55
2022-11-08T22:34:58.287Z,11.23
2022-11-08T22:37:43.649Z,15.20
2022-11-08T22:40:29.097Z,8.88
2022-11-08T22:43:14.371Z,12.98
2022-11-08T22:46:00.083Z,10.90
2022-11-08T22:48:45.812Z,9.43
2022-11-08T22:51:31.479Z,14.73
2022-11-08T22:54:17.048Z,11.60
2022-11-08T22:57:04.216Z,9.40
2022-11-08T22:59:49.795Z,11.85
2022-11-08T23:02:35.109Z,9.45
2022-11-08T23:05:20.423Z,10.60
2022-11-08T23:08:06.411Z,10.43
2022-11-08T23:11:11.225Z,12.52
2022-11-08T23:14:15.657Z,15.30
2022-11-08T23:17:01.612Z,11.15
2022-11-08T23:20:05.691Z,16.58
2022-11-08T23:23:09.577Z,16.02
2022-11-08T23:25:56.058Z,17.23
2022-11-08T23:29:00.072Z,16.20
2022-11-08T23:31:45.848Z,15.43
2022-11-08T23:34:31.213Z,12.07
2022-11-08T23:37:17.931Z,14.45
2022-11-08T23:40:23.480Z,13.88
2022-11-08T23:43:32.915Z,14.05
2022-11-08T23:46:18.124Z,11.73
2022-11-08T23:49:04.278Z,12.95
2022-11-08T23:51:50.277Z,14.00
2022-11-08T23:54:36.376Z,15.60
2022-11-08T23:57:22.230Z,25.05
